createdAt,value
2022-12-08T00:08:38.704Z,100157.72
2022-12-08T00:18:40.408Z,100149.25
2022-12-08T00:28:42.104Z,100154.56
2022-12-08T00:38:44.941Z,100154.84
2022-12-08T00:48:48.606Z,100163.66
2022-12-08T00:58:50.901Z,100164.91
2022-12-08T01:08:52.586Z,100145.72
2022-12-08T01:18:55.452Z,100167.59
2022-12-08T01:29:01.819Z,100155.63
2022-12-08T01:39:07.420Z,100162.94
2022-12-08T01:49:11.802Z,100148.50
2022-12-08T01:59:13.902Z,100150.16
2022-12-08T02:09:18.791Z,100133.59
2022-12-08T02:19:48.037Z,100129.41
2022-12-08T02:30:24.236Z,100134.09
2022-12-08T02:40:36.896Z,100115.94
2022-12-08T02:50:38.803Z,100099.72
2022-12-08T03:00:54.836Z,100106.50
2022-12-08T03:11:04.474Z,100092.03
2022-12-08T03:21:07.564Z,100071.00
2022-12-08T03:31:13.151Z,100097.53
2022-12-08T03:41:19.514Z,100102.84
2022-12-08T03:51:21.843Z,100087.56
2022-12-08T04:01:24.440Z,100083.75
2022-12-08T04:11:26.180Z,100101.69
2022-12-08T04:21:29.058Z,100082.81
2022-12-08T04:31:33.880Z,100078.41
2022-12-08T04:41:37.568Z,100049.97
2022-12-08T04:51:39.450Z,100064.06
2022-12-08T05:01:41.199Z,100052.97
2022-12-08T05:11:49.293Z,100070.56
2022-12-08T05:21:51.161Z,100081.59
2022-12-08T05:31:52.981Z,100080.44
2022-12-08T05:41:54.666Z,100063.47
2022-12-08T05:52:02.210Z,100035.19
2022-12-08T06:02:03.975Z,100072.72
2022-12-08T06:12:06.214Z,100078.66
2022-12-08T06:22:09.090Z,100081.56
2022-12-08T06:32:15.080Z,100084.72
2022-12-08T06:42:35.571Z,100091.94
2022-12-08T06:52:45.640Z,100084.31
2022-12-08T07:02:53.460Z,100081.59
2022-12-08T07:13:03.526Z,100095.06
2022-12-08T07:23:07.329Z,100067.69
2022-12-08T07:33:09.152Z,100089.88
2022-12-08T07:43:14.849Z,100083.16
2022-12-08T07:53:16.475Z,100090.34
2022-12-08T08:03:18.279Z,100067.47
2022-12-08T08:13:20.927Z,100076.34
2022-12-08T08:23:22.765Z,100087.22
2022-12-08T08:33:26.279Z,100066.16
2022-12-08T08:43:37.619Z,100058.88
2022-12-08T08:53:42.550Z,100069.13
2022-12-08T09:03:44.924Z,100077.03
2022-12-08T09:13:51.743Z,100041.13
2022-12-08T09:23:56.656Z,100041.56
2022-12-08T09:33:59.550Z,100038.56
2022-12-08T09:44:13.346Z,100058.03
2022-12-08T09:54:22.812Z,100012.91
2022-12-08T10:04:43.003Z,99983.38
2022-12-08T10:14:57.207Z,100014.63
2022-12-08T10:25:11.842Z,100014.28
2022-12-08T10:35:18.125Z,99986.66
2022-12-08T10:45:38.658Z,99977.69
2022-12-08T10:55:49.481Z,99939.13
2022-12-08T11:05:55.656Z,99937.75
2022-12-08T11:16:01.750Z,99881.13
2022-12-08T11:26:23.820Z,99893.56
2022-12-08T11:36:29.940Z,99881.59
2022-12-08T11:46:40.976Z,99847.25
2022-12-08T11:56:54.169Z,99840.34
2022-12-08T12:07:33.047Z,99840.63
2022-12-08T12:17:53.396Z,99841.41
2022-12-08T12:28:06.913Z,99849.91
2022-12-08T12:38:40.779Z,99845.72
2022-12-08T12:48:43.490Z,99852.44
2022-12-08T12:58:49.288Z,99836.00
2022-12-08T13:08:56.371Z,99821.41
2022-12-08T13:19:03.814Z,99826.44
2022-12-08T13:29:20.519Z,99819.50
2022-12-08T13:39:35.825Z,99809.06
2022-12-08T14:00:15.928Z,99815.88
2022-12-08T14:10:24.779Z,99815.63
2022-12-08T14:20:29.787Z,99802.50
2022-12-08T14:30:32.925Z,99785.31
2022-12-08T14:40:38.276Z,99788.34
2022-12-08T14:50:44.681Z,99829.59
2022-12-08T15:00:52.687Z,99817.50
2022-12-08T15:11:33.590Z,99811.50
2022-12-08T15:21:40.328Z,99795.28
2022-12-08T15:31:43.399Z,99759.06
2022-12-08T15:41:45.053Z,99803.16
2022-12-08T15:51:47.576Z,99770.63
2022-12-08T16:01:50.731Z,99754.84
2022-12-08T16:12:11.952Z,99807.78
2022-12-08T16:32:46.941Z,99788.13
2022-12-08T16:42:50.547Z,99757.34
2022-12-08T16:53:06.151Z,99763.44
2022-12-08T17:03:09.163Z,99777.81
2022-12-08T17:13:13.099Z,99782.13
2022-12-08T17:23:21.259Z,99757.94
2022-12-08T17:33:27.644Z,99777.81
2022-12-08T17:43:31.798Z,99749.31
2022-12-08T17:53:40.868Z,99748.78
2022-12-08T18:03:45.725Z,99743.69
2022-12-08T18:13:48.795Z,99746.22
2022-12-08T18:23:51.066Z,99751.47
2022-12-08T18:33:55.174Z,99748.13
2022-12-08T18:43:58.600Z,99764.38
2022-12-08T18:54:01.535Z,99761.25
2022-12-08T19:14:30.832Z,99757.34
2022-12-08T19:24:36.910Z,99768.53
2022-12-08T19:34:39.759Z,99762.41
2022-12-08T19:44:55.292Z,99702.41
2022-12-08T19:54:59.717Z,99759.00
2022-12-08T20:05:02.756Z,99729.94
2022-12-08T20:15:12.007Z,99744.13
2022-12-08T20:25:20.806Z,99734.91
2022-12-08T20:35:23.766Z,99710.91
2022-12-08T20:45:29.586Z,99728.69
2022-12-08T20:55:36.414Z,99753.88
2022-12-08T21:05:42.447Z,99756.34
2022-12-08T21:15:49.166Z,99756.34
2022-12-08T21:25:51.210Z,99761.44
2022-12-08T21:36:08.207Z,99758.25
2022-12-08T21:46:20.846Z,99702.03
2022-12-08T21:56:23.839Z,99706.97
2022-12-08T22:06:25.796Z,99732.38
2022-12-08T22:16:36.136Z,99734.31
2022-12-08T22:26:45.064Z,99717.34
2022-12-08T22:36:49.126Z,99749.72
2022-12-08T22:46:57.259Z,99735.19
2022-12-08T22:57:00.133Z,99740.16
2022-12-08T23:07:04.238Z,99737.56
2022-12-08T23:17:06.127Z,99718.88
2022-12-08T23:27:08.277Z,99734.06
2022-12-08T23:37:12.234Z,99705.13
2022-12-08T23:47:14.336Z,99726.31
2022-12-08T23:57:19.539Z,99701.59
